Time;durP1;ratioP1;P1;durP2;ratioP2;P2;SDS_P1;SDS_P2;PMS_P1;PMS_P2;Temp;Humidity;BMP_temperature;BMP_pressure;BME280_temperature;BME280_humidity;BME280_pressure;Samples;Min_cycle;Max_cycle;Signal;HPM_P1;HPM_P2
2022/08/24 00:00:24;;;;;;;21.75;20.35;;;19.30;99.90;;;;;;4999048;28;20049;-76
2022/08/24 00:02:53;;;;;;;21.77;20.48;;;19.50;99.90;;;;;;4999163;28;20053;-76
2022/08/24 00:05:20;;;;;;;22.50;20.90;;;19.50;99.90;;;;;;4963152;28;20042;-74
2022/08/24 00:07:48;;;;;;;22.23;20.83;;;19.40;99.90;;;;;;4995373;28;20316;-76
2022/08/24 00:10:17;;;;;;;23.48;21.88;;;19.30;99.90;;;;;;4991772;28;20050;-76
2022/08/24 00:12:44;;;;;;;22.85;21.20;;;19.10;99.90;;;;;;4975357;28;20045;-76
2022/08/24 00:15:13;;;;;;;23.88;22.02;;;18.90;99.90;;;;;;4993280;28;20137;-74
2022/08/24 00:17:39;;;;;;;22.08;20.50;;;19.00;99.90;;;;;;4996438;28;20046;-74
2022/08/24 00:20:08;;;;;;;22.00;20.63;;;19.10;99.90;;;;;;4976297;28;20053;-74
2022/08/24 00:22:36;;;;;;;22.42;20.60;;;19.20;99.90;;;;;;4978005;28;20049;-74
2022/08/24 00:25:04;;;;;;;22.70;21.08;;;19.30;99.90;;;;;;4978028;28;20132;-75
2022/08/24 00:27:31;;;;;;;22.33;20.73;;;19.20;99.90;;;;;;4998587;28;20464;-73
2022/08/24 00:29:57;;;;;;;22.17;20.67;;;19.20;99.90;;;;;;4956118;28;20555;-74
2022/08/24 00:32:24;;;;;;;22.95;21.42;;;19.20;99.90;;;;;;4993508;28;21477;-74
2022/08/24 00:34:52;;;;;;;22.63;20.83;;;19.00;99.90;;;;;;4979344;28;20050;-74
2022/08/24 00:37:27;;;;;;;22.10;20.80;;;18.90;99.90;;;;;;4993524;28;21065;-74
2022/08/24 00:39:54;;;;;;;22.10;20.50;;;18.90;99.90;;;;;;4977459;28;20068;-74
2022/08/24 00:42:22;;;;;;;22.23;20.77;;;18.90;99.90;;;;;;4975589;28;20468;-74
2022/08/24 00:44:48;;;;;;;22.27;20.77;;;18.90;99.90;;;;;;4977819;28;20595;-76
2022/08/24 00:47:23;;;;;;;21.65;20.25;;;18.90;99.90;;;;;;4985797;28;20234;-74
2022/08/24 00:50:04;;;;;;;22.52;21.10;;;18.80;99.90;;;;;;4977131;28;20580;-76
2022/08/24 00:52:38;;;;;;;22.75;21.23;;;18.70;99.90;;;;;;4994977;28;20037;-75
2022/08/24 00:55:08;;;;;;;;;;;18.70;99.90;;;;;;4973635;28;20129;-76
2022/08/24 00:57:40;;;;;;;21.88;20.48;;;18.70;99.90;;;;;;4978184;28;19928;-75
2022/08/24 01:00:30;;;;;;;22.17;20.70;;;18.80;99.90;;;;;;4979719;28;20575;-75
2022/08/24 01:03:03;;;;;;;21.95;20.45;;;19.00;99.90;;;;;;4993223;28;20128;-75
2022/08/24 01:05:32;;;;;;;22.40;20.90;;;19.10;99.90;;;;;;4976666;28;20034;-75
2022/08/24 01:08:00;;;;;;;22.15;20.75;;;19.10;99.90;;;;;;4977098;28;20069;-75
2022/08/24 01:10:32;;;;;;;22.50;21.05;;;19.00;99.90;;;;;;4975811;28;20046;-75
2022/08/24 01:13:02;;;;;;;22.27;20.88;;;19.00;99.90;;;;;;4976099;28;20066;-75
2022/08/24 01:15:34;;;;;;;22.92;21.45;;;18.90;99.90;;;;;;4978804;28;20069;-75
2022/08/24 01:21:00;;;;;;;23.23;21.80;;;18.30;99.90;;;;;;4977469;28;20050;-75
2022/08/24 01:23:40;;;;;;;23.35;21.75;;;18.20;99.90;;;;;;4975944;28;20462;-75
2022/08/24 01:26:12;;;;;;;23.20;21.65;;;18.10;99.90;;;;;;4974332;28;20291;-75
2022/08/24 01:28:44;;;;;;;22.77;21.38;;;18.20;99.90;;;;;;4976737;28;20130;-75
2022/08/24 01:31:11;;;;;;;23.35;21.85;;;18.10;99.90;;;;;;4975229;28;20483;-75
2022/08/24 01:33:38;;;;;;;23.92;22.15;;;18.20;99.90;;;;;;4995862;28;20189;-76
2022/08/24 01:36:22;;;;;;;24.10;22.52;;;18.20;99.90;;;;;;4977044;28;20049;-76
2022/08/24 01:38:57;;;;;;;24.52;22.80;;;18.10;99.90;;;;;;4964561;28;20074;-75
2022/08/24 01:41:23;;;;;;;23.13;21.52;;;18.10;99.90;;;;;;4987028;28;20050;-75
2022/08/24 01:43:56;;;;;;;23.58;21.98;;;18.00;99.90;;;;;;4987902;28;20034;-76
2022/08/24 01:46:23;;;;;;;23.95;22.27;;;17.90;99.90;;;;;;4983414;28;20057;-75
2022/08/24 01:48:50;;;;;;;23.83;22.30;;;17.60;99.90;;;;;;4980754;28;20046;-75
2022/08/24 01:51:17;;;;;;;23.65;21.83;;;17.60;99.90;;;;;;4992921;28;20042;-75
2022/08/24 01:53:44;;;;;;;23.75;22.25;;;17.70;99.90;;;;;;4979990;28;20619;-75
2022/08/24 01:56:11;;;;;;;23.60;21.83;;;17.70;99.90;;;;;;4977707;28;20045;-75
2022/08/24 01:58:44;;;;;;;23.63;21.85;;;17.50;99.90;;;;;;4981924;28;20400;-75
2022/08/24 02:01:12;;;;;;;23.70;22.10;;;17.40;99.90;;;;;;4977688;28;20351;-75
2022/08/24 02:03:38;;;;;;;23.90;21.90;;;17.30;99.90;;;;;;4980938;28;20050;-75
2022/08/24 02:06:06;;;;;;;24.73;22.52;;;17.30;99.90;;;;;;4993747;28;20046;-76
2022/08/24 02:08:34;;;;;;;23.42;21.90;;;17.30;99.90;;;;;;4981168;28;20038;-75
2022/08/24 02:11:05;;;;;;;22.90;21.27;;;17.30;99.90;;;;;;4978605;28;20038;-75
2022/08/24 02:13:34;;;;;;;22.63;21.23;;;17.40;99.90;;;;;;4976467;28;20046;-76
2022/08/24 02:16:01;;;;;;;22.85;21.35;;;17.40;99.90;;;;;;4995648;28;20534;-76
2022/08/24 02:18:32;;;;;;;22.67;21.02;;;17.40;99.90;;;;;;4979457;28;20081;-76
2022/08/24 02:21:00;;;;;;;22.92;21.08;;;17.50;99.90;;;;;;4979604;28;20124;-76
2022/08/24 02:23:28;;;;;;;22.40;20.80;;;17.60;99.90;;;;;;4967005;28;20296;-76
2022/08/24 02:25:55;;;;;;;21.85;20.45;;;17.70;99.90;;;;;;4980053;28;20432;-76
2022/08/24 02:28:22;;;;;;;22.40;20.83;;;17.90;99.90;;;;;;5001190;28;20065;-75
2022/08/24 02:30:49;;;;;;;21.80;20.33;;;18.00;99.90;;;;;;4980182;28;20045;-76
2022/08/24 02:33:16;;;;;;;23.58;21.83;;;17.90;99.90;;;;;;4975851;28;20053;-75
2022/08/24 02:35:43;;;;;;;23.13;21.20;;;18.00;99.90;;;;;;4979737;28;20046;-76
2022/08/24 02:38:10;;;;;;;22.00;20.40;;;17.90;99.90;;;;;;4976021;28;20116;-75
2022/08/24 02:40:38;;;;;;;22.70;21.30;;;17.80;99.90;;;;;;4978702;28;20042;-75
2022/08/24 02:43:04;;;;;;;22.83;21.42;;;17.70;99.90;;;;;;4985654;28;20038;-75
2022/08/24 02:45:37;;;;;;;23.08;21.35;;;17.60;99.90;;;;;;4973746;28;20288;-75
2022/08/24 02:48:04;;;;;;;23.58;21.65;;;17.50;99.90;;;;;;4983003;28;20588;-76
2022/08/24 02:50:31;;;;;;;23.48;21.63;;;17.50;99.90;;;;;;4976595;28;20050;-76
2022/08/24 02:52:58;;;;;;;23.08;21.38;;;17.40;99.90;;;;;;4978659;28;20520;-75
2022/08/24 02:55:25;;;;;;;22.70;21.00;;;17.40;99.90;;;;;;4974257;28;20144;-75
2022/08/24 02:57:52;;;;;;;22.98;21.33;;;17.40;99.90;;;;;;5007523;23;20080;-71
2022/08/24 03:00:21;;;;;;;22.90;21.40;;;17.40;99.90;;;;;;4993553;28;20045;-71
2022/08/24 03:02:52;;;;;;;22.10;20.80;;;17.40;99.90;;;;;;4995975;28;20049;-71
2022/08/24 03:05:21;;;;;;;22.83;21.23;;;17.40;99.90;;;;;;4993735;28;20380;-71
2022/08/24 03:07:48;;;;;;;22.52;21.13;;;17.50;99.90;;;;;;4997252;28;20388;-70
2022/08/24 03:10:19;;;;;;;23.63;21.92;;;17.40;99.90;;;;;;4991022;28;20041;-71
2022/08/24 03:12:46;;;;;;;21.90;20.40;;;17.50;99.90;;;;;;5014502;28;20100;-71
2022/08/24 03:15:13;;;;;;;22.08;20.67;;;17.60;99.90;;;;;;4994321;28;20374;-71
2022/08/24 03:17:41;;;;;;;22.65;20.85;;;17.60;99.90;;;;;;4998800;28;20393;-71
2022/08/24 03:20:13;;;;;;;22.45;20.95;;;17.60;99.90;;;;;;5009753;28;20041;-72
2022/08/24 03:22:41;;;;;;;22.05;20.75;;;17.60;99.90;;;;;;4996472;28;20140;-71
2022/08/24 03:25:10;;;;;;;23.10;21.02;;;17.40;99.90;;;;;;4995424;28;20103;-71
2022/08/24 03:27:37;;;;;;;22.58;21.00;;;17.40;99.90;;;;;;4998318;28;20787;-71
2022/08/24 03:30:07;;;;;;;22.85;21.17;;;17.50;99.90;;;;;;4993521;28;20041;-71
2022/08/24 03:32:34;;;;;;;22.77;21.17;;;17.50;99.90;;;;;;4991299;28;20037;-71
2022/08/24 03:35:03;;;;;;;22.63;21.20;;;17.60;99.90;;;;;;4993016;28;20046;-71
2022/08/24 03:37:31;;;;;;;23.08;21.40;;;17.60;99.90;;;;;;4974289;28;20044;-71
2022/08/24 03:39:59;;;;;;;22.20;20.80;;;17.50;99.90;;;;;;4994042;28;20076;-71
2022/08/24 03:42:26;;;;;;;23.15;21.55;;;17.60;99.90;;;;;;4991429;28;20059;-69
2022/08/24 03:44:52;;;;;;;22.40;20.85;;;17.40;99.90;;;;;;4993237;28;20045;-68
2022/08/24 03:47:21;;;;;;;23.17;21.58;;;17.30;99.90;;;;;;4990772;28;20045;-69
2022/08/24 03:49:49;;;;;;;22.55;21.15;;;17.20;99.90;;;;;;4995862;28;20052;-70
2022/08/24 03:52:16;;;;;;;23.45;21.63;;;17.20;99.90;;;;;;4996006;28;20582;-70
2022/08/24 03:54:43;;;;;;;22.98;21.23;;;17.10;99.90;;;;;;4995982;28;20065;-70
2022/08/24 03:57:11;;;;;;;23.88;22.25;;;17.10;99.90;;;;;;5009838;28;20515;-70
2022/08/24 03:59:37;;;;;;;23.73;22.08;;;17.10;99.90;;;;;;4996632;28;20041;-70
2022/08/24 04:02:12;;;;;;;23.75;22.05;;;17.10;99.90;;;;;;4990248;28;20076;-70
2022/08/24 04:04:40;;;;;;;22.52;21.20;;;17.10;99.90;;;;;;5013039;28;20104;-71
2022/08/24 04:07:09;;;;;;;23.45;21.80;;;17.00;99.90;;;;;;4990208;28;20050;-70
2022/08/24 04:09:36;;;;;;;23.58;22.08;;;17.00;99.90;;;;;;4992923;28;20033;-70
2022/08/24 04:12:04;;;;;;;23.73;22.08;;;16.90;99.90;;;;;;4991798;28;20095;-70
2022/08/24 04:14:31;;;;;;;23.23;21.83;;;16.90;99.90;;;;;;4971344;28;20567;-70
2022/08/24 04:17:03;;;;;;;24.33;22.48;;;16.80;99.90;;;;;;4975199;28;20156;-68
2022/08/24 04:19:35;;;;;;;24.60;22.95;;;16.90;99.90;;;;;;4991436;28;20127;-70
2022/08/24 04:22:02;;;;;;;23.48;21.92;;;16.70;99.90;;;;;;4993893;28;20054;-71
2022/08/24 04:24:30;;;;;;;23.67;21.92;;;16.70;99.90;;;;;;4978768;28;20041;-70
2022/08/24 04:26:56;;;;;;;25.33;23.70;;;16.60;99.90;;;;;;4995924;28;20284;-70
2022/08/24 04:29:24;;;;;;;23.27;21.77;;;16.60;99.90;;;;;;4991853;28;20168;-70
2022/08/24 04:31:52;;;;;;;23.73;21.85;;;16.60;99.90;;;;;;4974957;28;20054;-70
2022/08/24 04:34:21;;;;;;;22.08;20.70;;;16.60;99.90;;;;;;5004076;28;20108;-70
2022/08/24 04:36:49;;;;;;;23.75;22.15;;;16.60;99.90;;;;;;4992735;28;20669;-69
2022/08/24 04:39:16;;;;;;;25.60;23.80;;;16.50;99.90;;;;;;4992709;28;20045;-70
2022/08/24 04:41:56;;;;;;;25.50;23.73;;;16.50;99.90;;;;;;4993790;28;20069;-70
2022/08/24 04:44:31;;;;;;;26.30;24.13;;;16.50;99.90;;;;;;4994142;28;20136;-71
2022/08/24 04:47:00;;;;;;;25.30;23.65;;;16.60;99.90;;;;;;4993365;28;20069;-71
2022/08/24 04:49:27;;;;;;;24.95;23.25;;;16.60;99.90;;;;;;4992443;28;20034;-70
2022/08/24 04:51:54;;;;;;;25.88;24.17;;;16.50;99.90;;;;;;4991704;28;20565;-70
2022/08/24 04:54:21;;;;;;;25.83;23.95;;;16.50;99.90;;;;;;5008954;28;20056;-70
2022/08/24 04:57:00;;;;;;;25.20;23.60;;;16.50;99.90;;;;;;4993194;28;20042;-70
2022/08/24 04:59:27;;;;;;;26.50;24.17;;;16.50;99.90;;;;;;4992572;28;20045;-70
2022/08/24 05:01:54;;;;;;;25.55;23.85;;;16.50;99.90;;;;;;4977122;28;20524;-72
2022/08/24 05:04:20;;;;;;;24.88;23.00;;;16.50;99.90;;;;;;4991478;28;20053;-70
2022/08/24 05:06:47;;;;;;;26.15;24.35;;;16.40;99.90;;;;;;4994840;28;20096;-72
2022/08/24 05:09:20;;;;;;;26.23;24.42;;;16.50;99.90;;;;;;4993587;28;20073;-72
2022/08/24 05:11:48;;;;;;;25.70;24.10;;;16.60;99.90;;;;;;4995106;28;20250;-72
2022/08/24 05:14:20;;;;;;;25.17;23.48;;;16.60;99.90;;;;;;4975501;28;20288;-72
2022/08/24 05:16:52;;;;;;;25.45;23.83;;;16.70;99.90;;;;;;4992818;28;20099;-72
2022/08/24 05:19:22;;;;;;;25.48;23.75;;;16.80;99.90;;;;;;5009991;28;20049;-69
2022/08/24 05:21:49;;;;;;;25.10;23.40;;;16.80;99.90;;;;;;4998130;28;20513;-69
2022/08/24 05:24:16;;;;;;;25.55;23.85;;;16.90;99.90;;;;;;4992968;28;20034;-69
2022/08/24 05:26:43;;;;;;;25.52;23.92;;;16.80;99.90;;;;;;4999568;28;20042;-70
2022/08/24 05:29:10;;;;;;;25.92;24.00;;;16.90;99.90;;;;;;4994167;28;20292;-70
2022/08/24 05:31:44;;;;;;;25.35;23.50;;;16.90;99.90;;;;;;4996320;28;20128;-70
2022/08/24 05:34:12;;;;;;;25.88;24.17;;;16.90;99.90;;;;;;4993721;28;20073;-70
2022/08/24 05:36:41;;;;;;;25.98;23.95;;;16.90;99.90;;;;;;4998401;28;20057;-70
2022/08/24 05:39:14;;;;;;;25.13;23.42;;;17.00;99.90;;;;;;4992390;28;20042;-70
2022/08/24 05:41:49;;;;;;;25.48;23.70;;;17.10;99.90;;;;;;4987831;28;20063;-70
2022/08/24 05:44:23;;;;;;;25.73;23.52;;;17.30;99.90;;;;;;4996846;28;20042;-69
2022/08/24 05:46:56;;;;;;;23.98;22.50;;;17.50;99.90;;;;;;4996866;28;20233;-69
2022/08/24 05:49:24;;;;;;;23.77;22.20;;;17.70;99.90;;;;;;4996351;28;20144;-70
2022/08/24 05:51:51;;;;;;;25.20;23.08;;;17.90;99.90;;;;;;4997793;28;20115;-70
2022/08/24 05:54:19;;;;;;;25.08;23.23;;;17.90;99.90;;;;;;4994574;28;20590;-70
2022/08/24 05:56:54;;;;;;;24.08;22.67;;;18.10;99.90;;;;;;4981663;28;20518;-70
2022/08/24 05:59:22;;;;;;;25.17;23.23;;;18.20;99.90;;;;;;4979599;28;20374;-70
2022/08/24 06:01:49;;;;;;;25.45;23.88;;;18.40;99.90;;;;;;4998349;28;20038;-70
2022/08/24 06:04:17;;;;;;;25.58;23.70;;;18.50;99.90;;;;;;5011063;28;20037;-70
2022/08/24 06:06:44;;;;;;;25.50;23.80;;;18.70;99.90;;;;;;4980473;28;20461;-70
2022/08/24 06:09:15;;;;;;;25.50;23.90;;;18.70;99.90;;;;;;4993673;28;20539;-72
2022/08/24 06:11:45;;;;;;;24.45;22.85;;;18.90;99.90;;;;;;4997039;28;20356;-70
2022/08/24 06:14:16;;;;;;;24.45;22.80;;;19.00;99.90;;;;;;4994195;28;21502;-70
2022/08/24 06:16:54;;;;;;;25.30;23.70;;;19.00;99.90;;;;;;4997841;28;20064;-70
2022/08/24 06:19:22;;;;;;;25.15;23.55;;;19.10;99.90;;;;;;4978527;28;20050;-70
2022/08/24 06:21:51;;;;;;;24.77;23.15;;;19.20;99.90;;;;;;4997530;28;20107;-70
2022/08/24 06:27:19;;;;;;;24.92;23.25;;;19.30;99.90;;;;;;4987495;28;20055;-70
2022/08/24 06:27:21;;;;;;;24.95;23.27;;;19.40;99.90;;;;;;4991254;28;20156;-70
2022/08/24 06:30:03;;;;;;;24.88;23.23;;;19.40;99.90;;;;;;4980428;28;20038;-70
2022/08/24 06:32:48;;;;;;;25.05;23.27;;;19.50;99.90;;;;;;4995298;28;20049;-69
2022/08/24 06:35:27;;;;;;;24.52;23.02;;;19.50;99.90;;;;;;4993155;28;20407;-70
2022/08/24 06:37:55;;;;;;;24.52;22.83;;;19.70;99.90;;;;;;4996393;28;20361;-70
2022/08/24 06:40:24;;;;;;;24.13;22.52;;;19.80;99.90;;;;;;4993545;28;20912;-71
2022/08/24 06:42:52;;;;;;;25.10;23.50;;;19.80;99.90;;;;;;4998463;28;20057;-71
2022/08/24 06:45:36;;;;;;;25.20;23.38;;;19.90;99.90;;;;;;4982189;28;20131;-71
2022/08/24 06:48:04;;;;;;;25.40;23.52;;;20.20;99.90;;;;;;4994838;28;20042;-71
2022/08/24 06:50:32;;;;;;;25.25;23.50;;;20.50;99.90;;;;;;4990336;28;20050;-71
2022/08/24 06:53:00;;;;;;;25.40;23.73;;;20.90;99.90;;;;;;4996930;28;20096;-71
2022/08/24 06:55:28;;;;;;;24.73;23.23;;;21.10;99.90;;;;;;5010928;28;20539;-72
2022/08/24 06:57:55;;;;;;;24.80;23.20;;;21.30;99.90;;;;;;4996345;28;20154;-71
2022/08/24 07:00:24;;;;;;;25.10;23.33;;;21.60;99.90;;;;;;4992537;28;20572;-70
2022/08/24 07:02:51;;;;;;;25.02;23.23;;;21.80;99.90;;;;;;4979260;28;20085;-71
2022/08/24 07:05:18;;;;;;;24.90;23.30;;;22.10;99.90;;;;;;4977808;28;20076;-72
2022/08/24 07:08:06;;;;;;;24.58;22.98;;;22.30;99.90;;;;;;5011661;28;20425;-71
2022/08/24 07:10:33;;;;;;;25.73;24.00;;;22.50;99.90;;;;;;4977203;28;20049;-71
2022/08/24 07:13:00;;;;;;;25.70;24.00;;;22.50;99.90;;;;;;5011372;28;20042;-71
2022/08/24 07:15:27;;;;;;;25.58;24.08;;;22.60;99.90;;;;;;4993429;28;20499;-71
2022/08/24 07:18:08;;;;;;;25.88;24.17;;;22.60;99.90;;;;;;4993480;28;20046;-72
2022/08/24 07:20:40;;;;;;;26.08;24.10;;;22.80;99.90;;;;;;4995946;28;20049;-71
2022/08/24 07:23:15;;;;;;;25.75;24.15;;;22.90;99.90;;;;;;4993452;28;20534;-71
2022/08/24 07:25:44;;;;;;;27.80;26.10;;;22.90;99.90;;;;;;4998532;28;20041;-71
2022/08/24 07:28:19;;;;;;;27.13;25.27;;;23.00;99.90;;;;;;4977959;28;20397;-71
2022/08/24 07:30:57;;;;;;;27.30;25.70;;;23.00;99.90;;;;;;4996271;28;20052;-71
2022/08/24 07:33:25;;;;;;;27.25;25.65;;;23.30;99.90;;;;;;4993642;28;20057;-71
2022/08/24 07:35:52;;;;;;;28.08;26.27;;;23.70;99.90;;;;;;4994858;28;20092;-72
2022/08/24 07:38:22;;;;;;;26.90;25.40;;;23.70;99.90;;;;;;4999302;28;20051;-71
2022/08/24 07:40:48;;;;;;;27.85;26.25;;;23.90;99.90;;;;;;4995782;28;20107;-71
2022/08/24 07:43:35;;;;;;;28.75;26.85;;;23.80;99.90;;;;;;4996598;28;20060;-71
2022/08/24 07:46:07;;;;;;;29.20;27.45;;;23.50;99.90;;;;;;4992766;28;20131;-71
2022/08/24 07:48:35;;;;;;;28.23;26.52;;;23.60;99.90;;;;;;5009747;28;20037;-71
2022/08/24 07:51:10;;;;;;;29.05;26.90;;;24.00;99.90;;;;;;4990041;28;20045;-71
2022/08/24 07:53:39;;;;;;;29.48;27.63;;;24.20;99.90;;;;;;4976204;28;20045;-71
2022/08/24 07:56:21;;;;;;;30.25;27.98;;;24.50;99.90;;;;;;4993834;28;20037;-72
2022/08/24 07:58:48;;;;;;;28.88;26.90;;;25.10;99.90;;;;;;4982229;28;20100;-75
2022/08/24 08:01:21;;;;;;;27.88;26.15;;;25.50;99.90;;;;;;4994311;28;20049;-75
2022/08/24 08:03:49;;;;;;;27.27;25.48;;;25.80;99.90;;;;;;4998213;28;20041;-75
2022/08/24 08:06:17;;;;;;;29.40;27.38;;;25.40;99.90;;;;;;4994317;28;20151;-75
2022/08/24 08:08:46;;;;;;;28.38;26.60;;;25.30;99.90;;;;;;4997755;28;20125;-75
2022/08/24 08:11:13;;;;;;;28.92;27.02;;;25.60;99.90;;;;;;4979112;28;20038;-75
2022/08/24 08:13:40;;;;;;;29.00;27.27;;;25.90;99.90;;;;;;4996220;28;20255;-75
2022/08/24 08:16:08;;;;;;;29.73;28.00;;;25.90;99.90;;;;;;4994090;28;20042;-75
2022/08/24 08:18:35;;;;;;;29.50;27.50;;;25.90;99.90;;;;;;4981487;28;20164;-76
2022/08/24 08:24:13;;;;;;;28.83;27.15;;;25.90;99.90;;;;;;4993588;28;20071;-75
2022/08/24 08:26:46;;;;;;;29.92;28.23;;;26.00;99.90;;;;;;5001267;28;20041;-75
2022/08/24 08:29:31;;;;;;;30.02;28.23;;;25.70;99.90;;;;;;4996466;28;20048;-75
2022/08/24 08:31:59;;;;;;;30.42;28.67;;;25.60;99.90;;;;;;4997712;28;20471;-75
2022/08/24 08:34:28;;;;;;;29.88;28.17;;;25.40;99.90;;;;;;4980181;28;20041;-75
2022/08/24 08:36:56;;;;;;;31.58;29.63;;;25.50;99.90;;;;;;4997217;28;20049;-75
2022/08/24 08:39:24;;;;;;;30.35;28.60;;;25.80;99.90;;;;;;4994100;28;20515;-75
2022/08/24 08:42:26;;;;;;;30.38;28.65;;;26.10;99.90;;;;;;4996818;28;20111;-75
2022/08/24 08:45:14;;;;;;;29.15;27.38;;;26.20;99.90;;;;;;4994106;28;20045;-75
2022/08/24 08:48:16;;;;;;;30.55;28.80;;;26.30;99.90;;;;;;4991795;28;20049;-76
2022/08/24 08:51:09;;;;;;;31.08;29.17;;;26.80;99.90;;;;;;4995371;28;20037;-76
2022/08/24 08:54:00;;;;;;;30.48;28.65;;;27.10;99.90;;;;;;4973488;28;20049;-75
2022/08/24 08:57:03;;;;;;;30.83;28.90;;;27.50;99.90;;;;;;4978062;28;20318;-76
2022/08/24 08:59:56;;;;;;;30.77;28.85;;;27.80;99.90;;;;;;4991308;28;20120;-75
2022/08/24 09:02:37;;;;;;;30.35;28.65;;;27.80;99.90;;;;;;4993569;28;20053;-75
2022/08/24 09:05:34;;;;;;;30.85;29.02;;;27.80;99.90;;;;;;4993453;28;20041;-75
2022/08/24 09:08:03;;;;;;;29.70;27.90;;;27.70;99.90;;;;;;5015788;28;20049;-76
2022/08/24 09:10:55;;;;;;;31.80;29.85;;;28.10;99.90;;;;;;4992887;28;20475;-75
2022/08/24 09:13:42;;;;;;;31.90;30.00;;;27.90;99.90;;;;;;5010996;28;20055;-75
2022/08/24 09:16:37;;;;;;;31.90;30.10;;;27.90;99.90;;;;;;4994513;28;20539;-75
2022/08/24 09:19:29;;;;;;;32.30;30.50;;;27.90;99.90;;;;;;4993246;28;20045;-74
2022/08/24 09:22:04;;;;;;;32.05;30.00;;;28.00;99.90;;;;;;4995979;28;20419;-75
2022/08/24 09:24:49;;;;;;;32.55;30.45;;;28.20;99.90;;;;;;4992534;28;20316;-75
2022/08/24 09:27:56;;;;;;;34.22;32.05;;;28.40;99.90;;;;;;4995180;28;20048;-76
2022/08/24 09:30:34;;;;;;;32.30;30.40;;;28.40;99.90;;;;;;5011846;28;20797;-76
2022/08/24 09:33:19;;;;;;;30.83;29.13;;;28.20;99.90;;;;;;4997285;28;20042;-75
2022/08/24 09:35:50;;;;;;;31.50;29.90;;;28.30;99.90;;;;;;4995460;28;20409;-76
2022/08/24 09:38:45;;;;;;;32.28;30.48;;;28.50;99.90;;;;;;4994549;28;20038;-75
2022/08/24 09:41:30;;;;;;;31.58;29.70;;;28.80;99.90;;;;;;4993746;28;20064;-76
2022/08/24 09:44:06;;;;;;;31.73;29.73;;;29.30;99.90;;;;;;4981090;28;20069;-76
2022/08/24 09:46:57;;;;;;;31.15;29.45;;;29.30;99.90;;;;;;5008957;28;20045;-73
2022/08/24 09:49:41;;;;;;;31.55;29.67;;;29.50;99.90;;;;;;5012493;28;20053;-73
2022/08/24 09:52:08;;;;;;;;;;;29.50;99.90;;;;;;5012192;28;20060;-73
2022/08/24 09:55:07;;;;;;;33.28;31.35;;;29.60;99.90;;;;;;4997905;28;19921;-72
2022/08/24 09:58:11;;;;;;;31.80;30.10;;;29.50;99.90;;;;;;4990901;28;20052;-73
2022/08/24 10:00:46;;;;;;;34.85;32.63;;;29.70;99.90;;;;;;5015466;28;20072;-73
2022/08/24 10:03:21;;;;;;;34.30;32.33;;;29.90;99.40;;;;;;5012624;28;20044;-74
2022/08/24 10:06:17;;;;;;;33.03;31.23;;;29.60;99.00;;;;;;4999709;28;20041;-72
2022/08/24 10:09:24;;;;;;;34.85;32.28;;;29.80;99.10;;;;;;5002399;28;20115;-73
2022/08/24 10:12:20;;;;;;;32.97;30.98;;;29.40;99.20;;;;;;4997463;28;20045;-72
2022/08/24 10:14:53;;;;;;;33.03;31.23;;;29.80;98.30;;;;;;5014360;28;20071;-71
2022/08/24 10:17:32;;;;;;;32.70;30.88;;;29.90;98.20;;;;;;4984073;28;20632;-72
2022/08/24 10:20:15;;;;;;;32.13;30.27;;;29.30;99.90;;;;;;5002226;28;20053;-74
2022/08/24 10:23:00;;;;;;;33.78;31.73;;;29.50;98.40;;;;;;5019324;28;20046;-72
2022/08/24 10:25:56;;;;;;;33.05;31.15;;;29.90;97.50;;;;;;5002440;28;20046;-72
2022/08/24 10:28:35;;;;;;;33.67;31.55;;;29.90;97.10;;;;;;5014183;28;20159;-70
2022/08/24 10:31:08;;;;;;;33.35;31.15;;;30.00;97.10;;;;;;5000269;28;20057;-72
2022/08/24 10:34:12;;;;;;;32.03;30.20;;;30.10;97.30;;;;;;5001667;28;20056;-72
2022/08/24 10:36:57;;;;;;;32.38;30.40;;;30.40;97.30;;;;;;5006637;28;20046;-71
2022/08/24 10:39:51;;;;;;;31.95;30.17;;;30.40;97.30;;;;;;4998408;28;20049;-72
2022/08/24 10:45:59;;;;;;;33.25;31.10;;;29.80;97.60;;;;;;4999572;28;20053;-71
2022/08/24 10:48:29;;;;;;;33.05;30.88;;;30.00;97.20;;;;;;4997623;28;20451;-72
2022/08/24 10:51:21;;;;;;;33.88;31.85;;;30.00;97.80;;;;;;5018511;28;20168;-72
2022/08/24 10:53:51;;;;;;;34.42;32.13;;;30.20;96.40;;;;;;5008570;28;20041;-71
2022/08/24 10:56:34;;;;;;;32.95;31.05;;;30.00;96.40;;;;;;4996883;28;20069;-73
2022/08/24 10:59:10;;;;;;;32.70;30.63;;;30.00;97.40;;;;;;4982784;28;20631;-72
2022/08/24 11:01:38;;;;;;;33.42;31.27;;;30.20;96.10;;;;;;4994471;28;20041;-71
2022/08/24 11:04:07;;;;;;;34.15;31.73;;;30.50;95.20;;;;;;4999725;28;20117;-71
2022/08/24 11:06:40;;;;;;;32.83;30.73;;;30.80;95.80;;;;;;5016577;28;20045;-72
2022/08/24 11:09:12;;;;;;;32.35;30.15;;;30.70;96.40;;;;;;4998306;28;20049;-72
2022/08/24 11:11:48;;;;;;;33.55;31.25;;;31.10;97.00;;;;;;4997524;28;20167;-72
2022/08/24 11:14:15;;;;;;;32.70;30.50;;;30.60;96.50;;;;;;5012976;28;20199;-72
2022/08/24 11:16:45;;;;;;;34.05;32.05;;;30.50;96.80;;;;;;5017816;28;20041;-72
2022/08/24 11:19:30;;;;;;;32.55;30.63;;;30.30;96.00;;;;;;4979387;28;20062;-71
2022/08/24 11:22:20;;;;;;;33.25;31.25;;;30.50;96.30;;;;;;4995631;28;20053;-72
2022/08/24 11:24:51;;;;;;;32.42;30.30;;;30.60;95.80;;;;;;5002427;28;20595;-72
2022/08/24 11:27:38;;;;;;;32.42;30.25;;;30.20;96.90;;;;;;4995905;28;20103;-72
2022/08/24 11:30:17;;;;;;;31.88;29.63;;;30.30;96.90;;;;;;5015592;28;20060;-72
2022/08/24 11:32:46;;;;;;;32.90;30.80;;;29.90;95.90;;;;;;5013052;28;20103;-73
2022/08/24 11:35:32;;;;;;;32.72;30.63;;;29.90;96.90;;;;;;4995429;28;20045;-72
2022/08/24 11:38:15;;;;;;;32.95;30.70;;;30.20;96.10;;;;;;5011911;28;20053;-73
2022/08/24 11:40:54;;;;;;;31.67;29.77;;;29.70;97.10;;;;;;4997941;28;20048;-72
2022/08/24 11:43:42;;;;;;;33.70;31.70;;;29.70;96.00;;;;;;4995450;28;20040;-74
2022/08/24 11:46:38;;;;;;;33.13;30.95;;;30.30;95.50;;;;;;5021292;28;20044;-72
2022/08/24 11:49:13;;;;;;;32.10;30.00;;;30.60;94.90;;;;;;5017975;28;20055;-73
2022/08/24 11:52:03;;;;;;;32.17;30.13;;;30.90;94.00;;;;;;4967619;28;20077;-73
2022/08/24 11:54:55;;;;;;;31.42;29.52;;;31.20;94.30;;;;;;5014468;28;20104;-73
2022/08/24 11:57:50;;;;;;;32.22;29.92;;;30.80;94.10;;;;;;5013285;28;20710;-75
2022/08/24 12:00:21;;;;;;;32.15;30.10;;;30.90;93.60;;;;;;4995019;28;20178;-74
2022/08/24 12:02:59;;;;;;;32.08;29.90;;;31.20;94.20;;;;;;5003509;28;20099;-73
2022/08/24 12:05:48;;;;;;;31.67;29.70;;;31.50;94.10;;;;;;5013852;28;20071;-74
2022/08/24 12:08:20;;;;;;;31.83;29.88;;;31.80;93.70;;;;;;5001510;28;20088;-73
2022/08/24 12:11:32;;;;;;;32.65;30.65;;;31.70;92.70;;;;;;4988688;28;20496;-73
2022/08/24 12:14:34;;;;;;;33.15;30.88;;;31.50;92.50;;;;;;4985638;28;20053;-72
2022/08/24 12:17:24;;;;;;;32.53;30.52;;;31.70;92.90;;;;;;4999569;28;20045;-73
2022/08/24 12:19:59;;;;;;;33.22;31.15;;;32.10;93.70;;;;;;5017503;28;20045;-74
2022/08/24 12:22:28;;;;;;;32.70;30.55;;;31.90;91.60;;;;;;4995923;28;20747;-73
2022/08/24 12:24:58;;;;;;;34.08;31.88;;;31.40;91.80;;;;;;5007056;28;20757;-75
2022/08/24 12:27:31;;;;;;;34.45;32.08;;;31.50;91.80;;;;;;4994489;28;20041;-73
2022/08/24 12:30:06;;;;;;;33.38;31.45;;;31.40;93.10;;;;;;4997342;28;20046;-74
2022/08/24 12:32:47;;;;;;;35.67;33.17;;;31.30;92.60;;;;;;5012455;28;20890;-74
2022/08/24 12:35:30;;;;;;;34.72;32.15;;;30.50;92.70;;;;;;4996010;28;20112;-74
2022/08/24 12:38:13;;;;;;;35.10;32.60;;;30.50;93.30;;;;;;4994490;28;20057;-73
2022/08/24 12:40:52;;;;;;;33.20;31.10;;;30.30;93.50;;;;;;4997457;28;20041;-74
2022/08/24 12:43:24;;;;;;;35.33;33.10;;;31.00;93.60;;;;;;4993991;28;20041;-74
2022/08/24 12:45:54;;;;;;;34.25;32.15;;;31.00;92.30;;;;;;5014734;28;20091;-75
2022/08/24 12:48:32;;;;;;;35.63;32.90;;;30.80;92.60;;;;;;4976493;28;20049;-75
2022/08/24 12:51:43;;;;;;;35.03;32.83;;;30.50;92.50;;;;;;4998786;28;20045;-76
2022/08/24 12:54:16;;;;;;;35.47;33.22;;;30.80;93.30;;;;;;4995418;28;20049;-74
2022/08/24 12:57:02;;;;;;;35.28;32.97;;;30.50;93.30;;;;;;5011953;28;20041;-77
2022/08/24 12:59:35;;;;;;;35.70;33.47;;;30.50;92.40;;;;;;5012192;28;20529;-75
2022/08/24 13:02:10;;;;;;;34.10;31.80;;;30.40;92.30;;;;;;5020112;28;20268;-76
2022/08/24 13:04:56;;;;;;;34.22;32.05;;;31.00;93.20;;;;;;5014731;28;20546;-76
2022/08/24 13:07:22;;;;;;;34.50;32.60;;;31.60;92.40;;;;;;4996547;28;20042;-74
2022/08/24 13:09:55;;;;;;;35.05;32.90;;;32.00;91.50;;;;;;4999254;28;20045;-75
2022/08/24 13:12:29;;;;;;;33.97;31.97;;;32.40;90.70;;;;;;4996158;28;20704;-76